createdAt,value
2023-05-13T00:00:14.538Z,11.00
2023-05-13T00:02:59.722Z,10.96
2023-05-13T00:05:47.220Z,10.93
2023-05-13T00:08:32.150Z,10.87
2023-05-13T00:11:17.540Z,10.85
2023-05-13T00:14:03.357Z,10.80
2023-05-13T00:16:48.845Z,10.76
2023-05-13T00:19:34.045Z,10.60
2023-05-13T00:22:19.232Z,10.56
2023-05-13T00:25:04.961Z,10.46
2023-05-13T00:27:50.230Z,10.48
2023-05-13T00:30:35.225Z,10.08
2023-05-13T00:33:20.804Z,10.34
2023-05-13T00:36:06.553Z,10.38
2023-05-13T00:38:51.814Z,10.35
2023-05-13T00:41:37.113Z,10.28
2023-05-13T00:44:22.588Z,10.19
2023-05-13T00:47:11.244Z,10.00
2023-05-13T00:49:57.710Z,10.07
2023-05-13T00:52:43.495Z,9.90
2023-05-13T00:55:29.080Z,9.98
2023-05-13T00:58:14.565Z,9.96
2023-05-13T01:01:19.388Z,9.87
2023-05-13T01:04:37.369Z,9.86
2023-05-13T01:07:43.867Z,9.82
2023-05-13T01:10:50.013Z,9.76
2023-05-13T01:13:38.039Z,9.70
2023-05-13T01:16:45.880Z,9.67
2023-05-13T01:19:54.507Z,9.57
2023-05-13T01:22:39.707Z,9.05
2023-05-13T01:25:25.983Z,8.90
2023-05-13T01:28:11.604Z,8.73
2023-05-13T01:30:59.289Z,8.95
2023-05-13T01:33:46.661Z,8.83
2023-05-13T01:36:32.874Z,8.98
2023-05-13T01:39:20.463Z,9.04
2023-05-13T01:42:08.286Z,9.03
2023-05-13T01:44:54.574Z,9.06
2023-05-13T01:47:39.821Z,9.09
2023-05-13T01:50:26.634Z,9.04
2023-05-13T01:53:12.794Z,8.82
2023-05-13T01:55:59.081Z,8.99
2023-05-13T01:58:44.819Z,8.97
2023-05-13T02:01:30.494Z,8.96
2023-05-13T02:04:15.702Z,8.94
2023-05-13T02:07:00.888Z,8.45
2023-05-13T02:09:48.412Z,8.65
2023-05-13T02:12:33.590Z,8.63
2023-05-13T02:15:18.948Z,8.50
2023-05-13T02:18:04.489Z,8.28
2023-05-13T02:20:49.805Z,8.46
2023-05-13T02:23:35.143Z,8.39
2023-05-13T02:26:20.840Z,8.42
2023-05-13T02:29:06.188Z,8.49
2023-05-13T02:31:52.048Z,8.32
2023-05-13T02:34:37.203Z,8.16
2023-05-13T02:37:22.694Z,7.63
2023-05-13T02:40:16.500Z,7.98
2023-05-13T02:43:03.794Z,7.91
2023-05-13T02:46:03.399Z,7.93
2023-05-13T02:48:50.382Z,7.97
2023-05-13T02:51:35.628Z,7.87
2023-05-13T02:54:21.649Z,8.01
2023-05-13T02:57:07.061Z,8.14
2023-05-13T02:59:52.932Z,8.18
2023-05-13T03:02:38.239Z,8.05
2023-05-13T03:05:23.696Z,7.99
2023-05-13T03:08:08.913Z,8.03
2023-05-13T03:10:54.473Z,8.03
2023-05-13T03:13:39.752Z,7.79
2023-05-13T03:16:25.385Z,7.25
2023-05-13T03:19:10.929Z,7.62
2023-05-13T03:21:56.230Z,7.80
2023-05-13T03:24:42.378Z,7.84
2023-05-13T03:27:28.659Z,7.45
2023-05-13T03:30:14.526Z,7.43
2023-05-13T03:33:08.878Z,7.66
2023-05-13T03:35:54.678Z,7.83
2023-05-13T03:38:45.197Z,7.88
2023-05-13T03:41:30.693Z,7.54
2023-05-13T03:44:17.741Z,8.07
2023-05-13T03:47:03.656Z,7.98
2023-05-13T03:49:49.012Z,8.03
2023-05-13T03:52:34.927Z,8.15
2023-05-13T03:55:20.369Z,8.17
2023-05-13T03:58:13.189Z,8.19
2023-05-13T04:00:58.348Z,8.19
2023-05-13T04:03:43.667Z,8.19
2023-05-13T04:06:29.073Z,8.15
2023-05-13T04:09:14.355Z,8.15
2023-05-13T04:12:00.823Z,8.12
2023-05-13T04:14:46.018Z,8.19
2023-05-13T04:17:31.391Z,8.26
2023-05-13T04:20:16.902Z,8.30
2023-05-13T04:23:02.390Z,8.32
2023-05-13T04:25:52.050Z,8.35
2023-05-13T04:28:38.911Z,7.98
2023-05-13T04:31:24.328Z,8.35
2023-05-13T04:34:09.699Z,8.03
2023-05-13T04:36:55.574Z,8.45
2023-05-13T04:39:41.288Z,8.45
2023-05-13T04:42:26.627Z,8.48
2023-05-13T04:45:11.857Z,8.54
2023-05-13T04:47:58.460Z,8.46
2023-05-13T04:50:47.746Z,8.29
2023-05-13T04:53:34.778Z,8.53
2023-05-13T04:56:23.145Z,8.78
2023-05-13T04:59:09.533Z,8.87
2023-05-13T05:01:55.049Z,8.93
2023-05-13T05:04:40.722Z,8.84
2023-05-13T05:07:31.138Z,8.63
2023-05-13T05:10:16.576Z,8.56
2023-05-13T05:13:09.827Z,8.46
2023-05-13T05:15:55.495Z,8.52
2023-05-13T05:18:41.217Z,8.65
2023-05-13T05:21:27.025Z,8.89
2023-05-13T05:24:13.202Z,8.55
2023-05-13T05:26:58.308Z,8.86
2023-05-13T05:29:44.231Z,8.96
2023-05-13T05:32:29.756Z,9.09
2023-05-13T05:35:15.160Z,9.16
2023-05-13T05:38:00.618Z,9.16
2023-05-13T05:40:46.044Z,8.99
2023-05-13T05:43:31.208Z,9.02
2023-05-13T05:46:16.705Z,9.00
2023-05-13T05:49:02.218Z,9.16
2023-05-13T05:51:47.576Z,9.36
2023-05-13T05:54:32.713Z,9.29
2023-05-13T05:57:18.852Z,9.26
2023-05-13T06:00:04.393Z,9.38
2023-05-13T06:02:50.702Z,9.41
2023-05-13T06:05:37.134Z,9.36
2023-05-13T06:08:22.957Z,9.23
2023-05-13T06:11:10.176Z,8.99
2023-05-13T06:13:55.613Z,9.11
2023-05-13T06:16:40.960Z,9.40
2023-05-13T06:19:26.791Z,9.55
2023-05-13T06:22:12.146Z,9.43
2023-05-13T06:24:57.389Z,9.69
2023-05-13T06:27:42.723Z,9.71
2023-05-13T06:30:28.250Z,9.56
2023-05-13T06:33:14.048Z,9.60
2023-05-13T06:35:59.326Z,9.77
2023-05-13T06:38:45.372Z,10.05
2023-05-13T06:41:30.899Z,10.15
2023-05-13T06:44:23.915Z,10.13
2023-05-13T06:47:13.132Z,10.69
2023-05-13T06:49:58.396Z,11.06
2023-05-13T06:52:43.747Z,11.16
2023-05-13T06:55:28.938Z,11.59
2023-05-13T06:58:14.263Z,11.62
2023-05-13T07:00:59.770Z,11.63
2023-05-13T07:03:45.941Z,11.91
2023-05-13T07:06:31.256Z,12.43
2023-05-13T07:09:16.562Z,12.49
2023-05-13T07:12:02.156Z,12.72
2023-05-13T07:14:47.504Z,12.68
2023-05-13T07:17:32.916Z,12.77
2023-05-13T07:20:18.538Z,13.80
2023-05-13T07:23:03.729Z,13.93
2023-05-13T07:25:49.331Z,13.85
2023-05-13T07:28:34.642Z,14.18
2023-05-13T07:31:20.766Z,13.91
2023-05-13T07:34:06.156Z,13.87
2023-05-13T07:36:51.522Z,14.15
2023-05-13T07:39:36.806Z,14.24
2023-05-13T07:42:21.987Z,14.39
2023-05-13T07:45:10.684Z,14.72
2023-05-13T07:47:56.249Z,15.32
2023-05-13T07:50:41.555Z,15.58
2023-05-13T07:53:26.975Z,15.92
2023-05-13T07:56:12.650Z,16.21
2023-05-13T07:58:58.000Z,15.87
2023-05-13T08:01:43.180Z,16.09
2023-05-13T08:04:28.646Z,15.65
2023-05-13T08:07:13.937Z,16.08
2023-05-13T08:09:58.998Z,16.25
2023-05-13T08:12:44.455Z,16.28
2023-05-13T08:15:29.995Z,16.45
2023-05-13T08:18:15.345Z,16.65
2023-05-13T08:21:00.925Z,16.85
2023-05-13T08:23:46.311Z,17.07
2023-05-13T08:26:31.550Z,17.19
2023-05-13T08:29:16.783Z,16.49
2023-05-13T08:32:02.131Z,16.40
2023-05-13T08:34:47.902Z,16.63
2023-05-13T08:37:33.056Z,16.52
2023-05-13T08:40:18.712Z,16.88
2023-05-13T08:43:05.947Z,16.57
2023-05-13T08:45:51.889Z,17.01
2023-05-13T08:48:41.511Z,16.82
2023-05-13T08:51:27.083Z,17.02
2023-05-13T08:54:13.049Z,17.28
2023-05-13T08:56:58.646Z,17.67
2023-05-13T08:59:43.796Z,17.83
2023-05-13T09:02:29.668Z,17.60
2023-05-13T09:05:18.171Z,17.64
2023-05-13T09:08:08.242Z,17.82
2023-05-13T09:10:53.936Z,17.64
2023-05-13T09:13:39.207Z,17.60
2023-05-13T09:16:25.126Z,17.52
2023-05-13T09:19:11.635Z,17.72
2023-05-13T09:21:57.529Z,17.87
2023-05-13T09:24:53.878Z,18.09
2023-05-13T09:27:41.380Z,18.15
2023-05-13T09:30:28.564Z,18.37
2023-05-13T09:33:19.148Z,18.26
2023-05-13T09:36:05.208Z,17.74
2023-05-13T09:38:52.901Z,17.70
2023-05-13T09:41:38.036Z,17.53
2023-05-13T09:44:23.862Z,16.99
2023-05-13T09:47:16.535Z,17.40
2023-05-13T09:50:03.193Z,17.69
2023-05-13T09:52:49.531Z,17.66
2023-05-13T09:55:34.632Z,17.44
2023-05-13T09:58:23.245Z,17.25
2023-05-13T10:01:09.777Z,16.92
2023-05-13T10:03:57.243Z,16.67
2023-05-13T10:06:45.339Z,17.07
2023-05-13T10:09:35.642Z,17.12
2023-05-13T10:12:24.937Z,16.80
2023-05-13T10:15:11.328Z,16.71
2023-05-13T10:17:59.696Z,17.05
2023-05-13T10:20:46.395Z,16.95
2023-05-13T10:23:33.139Z,16.65
2023-05-13T10:26:20.029Z,16.83
2023-05-13T10:29:06.160Z,17.33
2023-05-13T10:31:52.218Z,17.12
2023-05-13T10:34:39.493Z,16.81
2023-05-13T10:37:27.582Z,16.87
2023-05-13T10:40:26.245Z,17.06
2023-05-13T10:43:22.676Z,17.37
2023-05-13T10:46:12.837Z,17.65
2023-05-13T10:48:59.663Z,17.97
2023-05-13T10:51:46.179Z,17.86
2023-05-13T10:54:40.569Z,17.70
2023-05-13T10:57:28.762Z,17.92
2023-05-13T11:00:18.047Z,18.38
2023-05-13T11:03:29.488Z,18.50
2023-05-13T11:06:18.810Z,18.46
2023-05-13T11:09:07.840Z,18.42
2023-05-13T11:11:54.422Z,18.16
2023-05-13T11:14:42.786Z,18.17
2023-05-13T11:17:30.987Z,17.92
2023-05-13T11:20:18.285Z,17.74
2023-05-13T11:23:03.792Z,17.15
2023-05-13T11:26:14.278Z,17.19
2023-05-13T11:29:04.547Z,17.12
2023-05-13T11:31:51.159Z,17.09
2023-05-13T11:34:36.730Z,17.36
2023-05-13T11:37:23.198Z,17.47
2023-05-13T11:40:10.165Z,17.60
2023-05-13T11:42:56.243Z,17.89
2023-05-13T11:45:41.558Z,17.33
2023-05-13T11:48:26.697Z,17.38
2023-05-13T11:51:12.309Z,17.11
2023-05-13T11:54:04.561Z,17.00
2023-05-13T11:56:50.082Z,16.30
2023-05-13T11:59:45.281Z,16.58
2023-05-13T12:02:38.094Z,16.48
2023-05-13T12:05:24.290Z,16.60
2023-05-13T12:08:10.733Z,16.72
2023-05-13T12:10:59.793Z,16.30
2023-05-13T12:13:45.100Z,16.69
2023-05-13T12:16:30.494Z,17.09
2023-05-13T12:19:16.096Z,17.28
2023-05-13T12:22:05.447Z,17.51
2023-05-13T12:24:50.782Z,17.41
2023-05-13T12:27:37.629Z,17.23
2023-05-13T12:30:23.291Z,17.28
2023-05-13T12:33:16.634Z,17.61
2023-05-13T12:36:15.354Z,17.87
2023-05-13T12:39:03.802Z,17.36
2023-05-13T12:41:52.055Z,17.24
2023-05-13T12:44:38.938Z,17.37
2023-05-13T12:47:24.617Z,17.23
2023-05-13T12:50:11.020Z,17.08
2023-05-13T12:52:56.268Z,17.21
2023-05-13T12:55:41.837Z,16.95
2023-05-13T12:58:27.257Z,17.00
2023-05-13T13:01:12.704Z,16.92
2023-05-13T13:03:58.153Z,17.10
2023-05-13T13:06:43.865Z,17.31
2023-05-13T13:09:29.061Z,17.70
2023-05-13T13:12:14.234Z,17.49
2023-05-13T13:14:59.731Z,17.30
2023-05-13T13:17:44.955Z,16.89
2023-05-13T13:20:30.251Z,16.88
2023-05-13T13:23:15.575Z,16.72
2023-05-13T13:26:01.859Z,16.58
2023-05-13T13:28:47.831Z,16.61
2023-05-13T13:31:33.715Z,16.57
2023-05-13T13:34:19.286Z,16.73
2023-05-13T13:37:04.735Z,16.73
2023-05-13T13:39:50.162Z,16.74
2023-05-13T13:42:44.090Z,16.74
2023-05-13T13:45:30.127Z,16.78
2023-05-13T13:48:15.225Z,16.53
2023-05-13T13:51:00.670Z,16.73
2023-05-13T13:53:45.845Z,16.91
2023-05-13T13:56:31.400Z,16.86
2023-05-13T13:59:16.999Z,16.62
2023-05-13T14:02:02.460Z,16.69
2023-05-13T14:04:47.854Z,16.29
2023-05-13T14:07:33.101Z,16.37
2023-05-13T14:10:18.221Z,16.28
2023-05-13T14:13:03.582Z,16.42
2023-05-13T14:15:48.750Z,16.62
2023-05-13T14:18:34.012Z,16.60
2023-05-13T14:21:19.422Z,16.48
2023-05-13T14:24:05.383Z,16.41
2023-05-13T14:26:50.819Z,16.36
2023-05-13T14:29:35.962Z,16.47
2023-05-13T14:32:21.388Z,16.54
2023-05-13T14:35:07.258Z,16.58
2023-05-13T14:37:52.351Z,16.60
2023-05-13T14:40:38.955Z,16.51
2023-05-13T14:43:24.678Z,16.20
2023-05-13T14:46:10.094Z,16.26
2023-05-13T14:48:55.240Z,15.87
2023-05-13T14:51:40.756Z,15.84
2023-05-13T14:54:27.362Z,16.05
2023-05-13T14:57:12.795Z,16.11
2023-05-13T14:59:59.951Z,16.28
2023-05-13T15:02:45.228Z,16.48
2023-05-13T15:05:30.615Z,16.70
2023-05-13T15:08:16.532Z,16.31
2023-05-13T15:11:01.661Z,16.87
2023-05-13T15:13:47.268Z,16.79
2023-05-13T15:16:32.552Z,16.29
2023-05-13T15:19:19.061Z,15.97
2023-05-13T15:22:05.423Z,15.82
2023-05-13T15:24:50.561Z,15.67
2023-05-13T15:27:36.122Z,15.89
2023-05-13T15:30:21.903Z,15.48
2023-05-13T15:33:07.616Z,15.30
2023-05-13T15:35:52.887Z,15.32
2023-05-13T15:38:38.772Z,15.06
2023-05-13T15:41:24.657Z,15.37
2023-05-13T15:44:10.279Z,15.21
2023-05-13T15:46:55.827Z,15.18
2023-05-13T15:49:40.991Z,15.07
2023-05-13T15:52:26.993Z,15.11
2023-05-13T15:55:12.210Z,15.11
2023-05-13T15:57:57.412Z,15.12
2023-05-13T16:00:43.319Z,15.29
2023-05-13T16:03:28.450Z,15.51
2023-05-13T16:06:13.748Z,15.40
2023-05-13T16:08:59.751Z,15.34
2023-05-13T16:11:44.850Z,15.30
2023-05-13T16:14:30.153Z,15.73
2023-05-13T16:17:15.370Z,15.81
2023-05-13T16:20:00.560Z,15.73
2023-05-13T16:22:45.795Z,15.56
2023-05-13T16:25:31.413Z,15.51
2023-05-13T16:28:16.836Z,15.33
2023-05-13T16:31:02.090Z,15.07
2023-05-13T16:33:47.705Z,14.94
2023-05-13T16:36:33.021Z,14.84
2023-05-13T16:39:18.645Z,14.72
2023-05-13T16:42:04.401Z,14.57
2023-05-13T16:44:49.749Z,14.72
2023-05-13T16:47:35.029Z,14.67
2023-05-13T16:50:20.335Z,14.79
2023-05-13T16:53:05.552Z,14.74
2023-05-13T16:55:50.617Z,14.62
2023-05-13T16:58:35.809Z,14.52
2023-05-13T17:01:21.332Z,14.64
2023-05-13T17:04:06.808Z,14.29
2023-05-13T17:06:53.343Z,14.12
2023-05-13T17:09:38.590Z,14.29
2023-05-13T17:12:23.768Z,14.25
2023-05-13T17:15:09.843Z,14.25
2023-05-13T17:17:55.106Z,14.20
2023-05-13T17:20:40.227Z,14.15
2023-05-13T17:23:25.693Z,14.01
2023-05-13T17:26:11.135Z,14.15
2023-05-13T17:28:56.652Z,14.20
2023-05-13T17:31:41.870Z,14.04
2023-05-13T17:34:27.204Z,14.20
2023-05-13T17:37:12.581Z,14.35
2023-05-13T17:39:57.834Z,14.29
2023-05-13T17:42:43.116Z,14.29
2023-05-13T17:45:29.141Z,14.04
2023-05-13T17:48:14.939Z,14.08
2023-05-13T17:51:00.309Z,14.03
2023-05-13T17:53:45.447Z,13.76
2023-05-13T17:56:31.158Z,13.73
2023-05-13T17:59:16.415Z,13.55
2023-05-13T18:02:01.953Z,13.38
2023-05-13T18:04:47.020Z,13.48
2023-05-13T18:07:32.728Z,13.42
2023-05-13T18:10:18.418Z,13.46
2023-05-13T18:13:03.855Z,13.33
2023-05-13T18:15:49.546Z,13.33
2023-05-13T18:18:34.887Z,13.33
2023-05-13T18:21:20.422Z,13.19
2023-05-13T18:24:06.812Z,13.20
2023-05-13T18:26:51.920Z,13.20
2023-05-13T18:29:37.179Z,13.13
2023-05-13T18:32:22.689Z,13.21
2023-05-13T18:35:08.548Z,13.07
2023-05-13T18:37:53.730Z,13.11
2023-05-13T18:40:38.992Z,13.15
2023-05-13T18:43:24.608Z,13.06
2023-05-13T18:46:09.990Z,13.04
2023-05-13T18:48:55.501Z,12.90
2023-05-13T18:51:40.891Z,12.99
2023-05-13T18:54:26.240Z,12.88
2023-05-13T18:57:11.336Z,12.88
2023-05-13T18:59:56.495Z,13.03
2023-05-13T19:02:42.312Z,13.01
2023-05-13T19:05:27.835Z,13.11
2023-05-13T19:08:12.955Z,13.03
2023-05-13T19:10:58.454Z,12.86
2023-05-13T19:13:47.578Z,12.46
2023-05-13T19:16:33.141Z,12.33
2023-05-13T19:19:18.761Z,12.26
2023-05-13T19:22:04.008Z,12.12
2023-05-13T19:24:49.432Z,12.01
2023-05-13T19:27:35.924Z,11.90
2023-05-13T19:30:21.222Z,12.03
2023-05-13T19:33:07.814Z,12.03
2023-05-13T19:35:53.312Z,12.15
2023-05-13T19:38:38.987Z,12.24
2023-05-13T19:41:24.163Z,12.12
2023-05-13T19:44:09.555Z,12.31
2023-05-13T19:46:55.314Z,12.30
2023-05-13T19:49:40.665Z,12.40
2023-05-13T19:52:26.533Z,12.38
2023-05-13T19:55:11.773Z,12.43
2023-05-13T19:57:57.370Z,12.38
2023-05-13T20:00:42.930Z,12.54
2023-05-13T20:03:28.246Z,12.62
2023-05-13T20:06:13.940Z,12.52
2023-05-13T20:08:59.040Z,12.34
2023-05-13T20:11:44.490Z,12.09
2023-05-13T20:14:47.547Z,11.96
2023-05-13T20:17:32.829Z,11.89
2023-05-13T20:20:18.046Z,11.72
2023-05-13T20:23:03.439Z,11.51
2023-05-13T20:25:48.671Z,11.30
2023-05-13T20:28:35.602Z,11.20
2023-05-13T20:31:21.960Z,11.18
2023-05-13T20:34:07.188Z,11.24
2023-05-13T20:36:52.452Z,11.25
2023-05-13T20:39:39.141Z,11.12
2023-05-13T20:42:24.544Z,11.18
2023-05-13T20:45:11.048Z,11.05
2023-05-13T20:47:56.433Z,11.13
2023-05-13T20:50:41.683Z,11.07
2023-05-13T20:53:27.058Z,11.10
2023-05-13T20:56:12.622Z,11.09
2023-05-13T20:58:57.781Z,10.99
2023-05-13T21:01:43.270Z,10.76
2023-05-13T21:04:29.373Z,10.70
2023-05-13T21:07:15.143Z,10.50
2023-05-13T21:10:01.294Z,10.53
2023-05-13T21:12:46.766Z,10.63
2023-05-13T21:15:32.581Z,10.64
2023-05-13T21:18:18.295Z,10.63
2023-05-13T21:21:03.953Z,10.61
2023-05-13T21:23:49.755Z,10.55
2023-05-13T21:26:34.832Z,10.54
2023-05-13T21:29:20.945Z,10.48
2023-05-13T21:32:07.576Z,10.39
2023-05-13T21:34:53.049Z,10.37
2023-05-13T21:37:39.476Z,10.32
2023-05-13T21:40:25.009Z,10.21
2023-05-13T21:43:10.954Z,10.06
2023-05-13T21:45:57.040Z,9.93
2023-05-13T21:48:42.678Z,9.83
2023-05-13T21:51:28.398Z,9.71
2023-05-13T21:54:14.035Z,9.46
2023-05-13T21:56:59.890Z,9.26
2023-05-13T21:59:45.409Z,9.57
2023-05-13T22:02:31.100Z,9.60
2023-05-13T22:05:16.933Z,9.49
2023-05-13T22:08:02.365Z,9.48
2023-05-13T22:10:47.496Z,9.46
2023-05-13T22:13:32.769Z,9.43
2023-05-13T22:16:18.177Z,9.47
2023-05-13T22:19:04.000Z,9.46
2023-05-13T22:21:49.266Z,8.94
2023-05-13T22:24:34.349Z,9.41
2023-05-13T22:27:19.843Z,9.41
2023-05-13T22:30:06.207Z,9.32
2023-05-13T22:32:52.945Z,9.15
2023-05-13T22:35:38.390Z,9.22
2023-05-13T22:38:23.558Z,9.18
2023-05-13T22:41:08.777Z,9.06
2023-05-13T22:43:53.890Z,8.91
2023-05-13T22:46:39.389Z,8.61
2023-05-13T22:49:24.960Z,8.75
2023-05-13T22:52:10.320Z,8.77
2023-05-13T22:54:55.671Z,8.88
2023-05-13T22:57:40.766Z,8.94
2023-05-13T23:00:26.361Z,8.97
2023-05-13T23:03:11.994Z,9.02
2023-05-13T23:05:57.582Z,9.06
2023-05-13T23:08:42.704Z,9.04
2023-05-13T23:11:28.119Z,9.01
2023-05-13T23:14:13.529Z,8.94
2023-05-13T23:16:58.771Z,8.95
2023-05-13T23:19:44.401Z,8.91
2023-05-13T23:22:29.952Z,8.87
2023-05-13T23:25:15.235Z,8.78
2023-05-13T23:28:00.764Z,8.92
2023-05-13T23:30:45.950Z,8.92
2023-05-13T23:33:31.476Z,8.91
2023-05-13T23:36:17.246Z,8.92
2023-05-13T23:39:03.001Z,8.95
2023-05-13T23:41:48.604Z,8.84
2023-05-13T23:44:33.951Z,8.83
2023-05-13T23:47:19.731Z,8.79
2023-05-13T23:50:06.068Z,8.51
2023-05-13T23:52:51.466Z,8.74
2023-05-13T23:55:36.602Z,8.77
2023-05-13T23:58:22.100Z,8.79
